createdAt,value
2022-11-22T00:01:29.317Z,12.47
2022-11-22T00:03:57.779Z,11.00
2022-11-22T00:06:26.340Z,10.67
2022-11-22T00:08:54.800Z,9.23
2022-11-22T00:11:23.340Z,9.37
2022-11-22T00:13:51.900Z,10.40
2022-11-22T00:16:21.893Z,11.50
2022-11-22T00:18:50.337Z,11.80
2022-11-22T00:21:18.863Z,10.93
2022-11-22T00:23:47.348Z,10.63
2022-11-22T00:26:15.865Z,11.37
2022-11-22T00:28:44.296Z,9.33
2022-11-22T00:31:12.823Z,9.63
2022-11-22T00:33:42.902Z,9.23
2022-11-22T00:36:11.459Z,8.40
2022-11-22T00:38:39.980Z,9.07
2022-11-22T00:41:08.603Z,11.80
2022-11-22T00:43:37.165Z,9.50
2022-11-22T00:46:05.647Z,9.17
2022-11-22T00:48:34.267Z,9.87
2022-11-22T00:51:04.125Z,10.70
2022-11-22T00:53:32.767Z,9.53
2022-11-22T00:56:01.272Z,9.80
2022-11-22T00:58:29.713Z,10.70
2022-11-22T01:00:58.352Z,9.17
2022-11-22T01:03:27.481Z,9.40
2022-11-22T01:05:56.069Z,10.33
2022-11-22T01:08:26.202Z,11.03
2022-11-22T01:10:58.884Z,10.87
2022-11-22T01:13:29.725Z,11.27
2022-11-22T01:16:01.487Z,10.73
2022-11-22T01:18:30.822Z,10.87
2022-11-22T01:21:00.091Z,8.80
2022-11-22T01:23:30.729Z,9.30
2022-11-22T01:25:59.492Z,8.80
2022-11-22T01:28:28.581Z,9.97
2022-11-22T01:30:57.345Z,9.40
2022-11-22T01:33:25.838Z,10.27
2022-11-22T01:35:54.550Z,8.07
2022-11-22T01:38:22.998Z,8.97
2022-11-22T01:40:53.195Z,10.03
2022-11-22T01:43:25.070Z,9.60
2022-11-22T01:45:57.084Z,9.93
2022-11-22T01:48:45.334Z,9.30
2022-11-22T01:51:25.648Z,9.13
2022-11-22T01:53:59.867Z,9.63
2022-11-22T01:56:31.698Z,10.30
2022-11-22T01:59:08.123Z,10.00
2022-11-22T02:01:37.429Z,9.63
2022-11-22T02:04:10.907Z,10.10
2022-11-22T02:06:50.683Z,9.00
2022-11-22T02:09:20.055Z,9.82
2022-11-22T02:11:54.928Z,10.10
2022-11-22T02:14:28.519Z,9.48
2022-11-22T02:16:57.427Z,10.50
2022-11-22T02:19:40.337Z,10.82
2022-11-22T02:22:25.701Z,10.70
2022-11-22T02:24:59.430Z,13.50
2022-11-22T02:27:29.463Z,11.40
2022-11-22T02:29:58.005Z,13.15
2022-11-22T02:32:26.433Z,13.82
2022-11-22T02:34:54.941Z,13.05
2022-11-22T02:37:28.353Z,12.53
2022-11-22T02:40:02.979Z,12.60
2022-11-22T02:42:34.958Z,11.40
2022-11-22T02:45:03.549Z,11.85
2022-11-22T02:47:32.322Z,12.90
2022-11-22T02:50:00.830Z,15.57
2022-11-22T02:52:29.397Z,13.57
2022-11-22T02:54:57.959Z,13.10
2022-11-22T02:57:26.487Z,12.80
2022-11-22T02:59:56.645Z,12.70
2022-11-22T03:02:25.254Z,12.70
2022-11-22T03:04:54.017Z,11.67
2022-11-22T03:07:22.526Z,13.27
2022-11-22T03:09:51.077Z,11.93
2022-11-22T03:12:23.162Z,11.17
2022-11-22T03:14:51.730Z,10.70
2022-11-22T03:17:21.690Z,13.77
2022-11-22T03:19:50.251Z,12.93
2022-11-22T03:22:18.895Z,14.03
2022-11-22T03:24:47.458Z,12.87
2022-11-22T03:27:16.211Z,14.43
2022-11-22T03:29:47.594Z,13.67
2022-11-22T03:32:16.185Z,12.60
2022-11-22T03:34:46.132Z,11.90
2022-11-22T03:37:14.731Z,11.47
2022-11-22T03:39:43.179Z,11.60
2022-11-22T03:42:13.636Z,12.13
2022-11-22T03:44:45.477Z,10.60
2022-11-22T03:47:14.861Z,12.10
2022-11-22T03:49:43.371Z,12.13
2022-11-22T03:52:13.327Z,11.50
2022-11-22T03:54:41.792Z,12.27
2022-11-22T03:57:10.278Z,13.40
2022-11-22T03:59:38.792Z,11.73
2022-11-22T04:02:07.830Z,11.30
2022-11-22T04:04:36.369Z,10.60
2022-11-22T04:07:04.948Z,12.17
2022-11-22T04:09:35.025Z,12.07
2022-11-22T04:12:03.550Z,13.73
2022-11-22T04:14:49.711Z,11.43
2022-11-22T04:17:38.527Z,12.93
2022-11-22T04:20:27.241Z,11.20
2022-11-22T04:23:00.271Z,11.27
2022-11-22T04:25:31.718Z,12.23
2022-11-22T04:28:00.927Z,12.93
2022-11-22T04:30:44.582Z,12.00
2022-11-22T04:33:13.752Z,11.90
2022-11-22T04:35:44.225Z,11.33
2022-11-22T04:38:14.703Z,10.50
2022-11-22T04:40:45.433Z,11.20
2022-11-22T04:43:39.587Z,10.13
2022-11-22T04:46:08.150Z,11.37
2022-11-22T04:48:37.049Z,9.67
2022-11-22T04:51:24.993Z,9.60
2022-11-22T04:53:54.012Z,10.50
2022-11-22T04:56:23.937Z,9.43
2022-11-22T04:58:52.497Z,9.63
2022-11-22T05:01:21.080Z,9.30
2022-11-22T05:03:49.694Z,10.77
2022-11-22T05:06:18.145Z,11.70
2022-11-22T05:08:46.624Z,12.83
2022-11-22T05:11:15.473Z,10.37
2022-11-22T05:13:45.893Z,11.53
2022-11-22T05:16:16.938Z,11.17
2022-11-22T05:18:58.944Z,11.30
2022-11-22T05:21:29.756Z,11.13
2022-11-22T05:23:57.659Z,11.87
2022-11-22T05:26:28.618Z,10.30
2022-11-22T05:28:59.704Z,11.87
2022-11-22T05:31:28.970Z,10.77
2022-11-22T05:33:58.689Z,12.50
2022-11-22T05:36:27.281Z,12.10
2022-11-22T05:38:56.267Z,12.27
2022-11-22T05:41:24.884Z,11.80
2022-11-22T05:43:58.575Z,10.80
2022-11-22T05:46:32.088Z,10.73
2022-11-22T05:49:01.643Z,13.17
2022-11-22T05:51:34.705Z,12.20
2022-11-22T05:54:04.074Z,11.93
2022-11-22T05:56:32.510Z,14.03
2022-11-22T05:59:01.041Z,11.10
2022-11-22T06:01:30.948Z,11.40
2022-11-22T06:03:59.462Z,10.37
2022-11-22T06:06:27.969Z,12.70
2022-11-22T06:08:56.436Z,11.97
2022-11-22T06:11:27.869Z,11.47
2022-11-22T06:13:59.769Z,11.70
2022-11-22T06:16:30.577Z,11.37
2022-11-22T06:18:59.210Z,11.40
2022-11-22T06:21:28.649Z,12.80
2022-11-22T06:23:57.968Z,12.30
2022-11-22T06:26:27.439Z,11.57
2022-11-22T06:28:56.649Z,12.40
2022-11-22T06:31:27.887Z,11.60
2022-11-22T06:34:00.541Z,10.80
2022-11-22T06:36:31.840Z,11.27
2022-11-22T06:39:02.036Z,11.83
2022-11-22T06:41:36.100Z,12.87
2022-11-22T06:44:07.951Z,12.50
2022-11-22T06:46:38.126Z,13.73
2022-11-22T06:49:07.997Z,13.40
2022-11-22T06:51:36.863Z,13.77
2022-11-22T06:54:05.541Z,12.70
2022-11-22T06:56:40.541Z,12.70
2022-11-22T06:59:10.394Z,14.70
2022-11-22T07:01:39.681Z,14.67
2022-11-22T07:04:11.585Z,15.63
2022-11-22T07:06:40.575Z,14.27
2022-11-22T07:09:12.295Z,11.93
2022-11-22T07:11:42.075Z,14.63
2022-11-22T07:14:10.687Z,13.87
2022-11-22T07:16:40.092Z,14.10
2022-11-22T07:19:10.918Z,13.10
2022-11-22T07:21:39.605Z,13.70
2022-11-22T07:24:09.635Z,12.13
2022-11-22T07:26:38.571Z,14.17
2022-11-22T07:29:07.057Z,13.20
2022-11-22T07:31:36.137Z,13.30
2022-11-22T07:34:04.655Z,12.60
2022-11-22T07:36:34.529Z,12.50
2022-11-22T07:39:04.760Z,13.03
2022-11-22T07:41:33.280Z,14.20
2022-11-22T07:44:02.007Z,17.30
2022-11-22T07:46:32.964Z,16.30
2022-11-22T07:49:03.574Z,13.23
2022-11-22T07:51:33.862Z,14.10
2022-11-22T07:54:03.351Z,15.43
2022-11-22T07:56:32.201Z,12.83
2022-11-22T07:59:01.407Z,13.13
2022-11-22T08:01:30.625Z,12.17
2022-11-22T08:04:00.101Z,13.53
2022-11-22T08:06:28.810Z,12.37
2022-11-22T08:09:02.025Z,12.80
2022-11-22T08:11:31.183Z,14.00
2022-11-22T08:13:59.858Z,14.00
2022-11-22T08:16:28.463Z,12.60
2022-11-22T08:18:57.142Z,13.47
2022-11-22T08:21:25.763Z,12.20
2022-11-22T08:24:00.309Z,13.57
2022-11-22T08:26:28.992Z,12.27
2022-11-22T08:28:57.501Z,12.63
2022-11-22T08:31:27.921Z,12.83
2022-11-22T08:33:56.597Z,13.37
2022-11-22T08:36:25.680Z,11.37
2022-11-22T08:38:54.689Z,13.93
2022-11-22T08:41:24.984Z,11.63
2022-11-22T08:43:54.448Z,12.03
2022-11-22T08:46:23.184Z,10.77
2022-11-22T08:48:54.082Z,10.33
2022-11-22T08:51:22.648Z,11.50
2022-11-22T08:53:51.249Z,10.30
2022-11-22T08:56:19.735Z,10.97
2022-11-22T08:58:49.780Z,13.83
2022-11-22T09:01:21.263Z,12.23
2022-11-22T09:03:51.051Z,11.27
2022-11-22T09:09:35.899Z,11.47
2022-11-22T09:11:58.189Z,11.93
2022-11-22T09:14:28.061Z,10.50
2022-11-22T09:16:56.648Z,9.57
2022-11-22T09:19:25.880Z,9.53
2022-11-22T09:21:54.699Z,10.30
2022-11-22T09:24:23.269Z,9.37
2022-11-22T09:26:51.838Z,10.30
2022-11-22T09:29:20.347Z,8.80
2022-11-22T09:31:50.398Z,8.97
2022-11-22T09:34:19.086Z,10.70
2022-11-22T09:36:59.284Z,10.23
2022-11-22T09:39:28.803Z,10.67
2022-11-22T09:42:32.911Z,9.90
2022-11-22T09:45:41.797Z,9.50
2022-11-22T09:48:45.785Z,9.27
2022-11-22T09:51:22.166Z,8.97
2022-11-22T09:53:56.649Z,9.20
2022-11-22T09:56:30.650Z,9.53
2022-11-22T09:59:06.702Z,9.47
2022-11-22T10:01:44.435Z,9.40
2022-11-22T10:04:21.322Z,9.67
2022-11-22T10:06:55.957Z,9.50
2022-11-22T10:09:38.408Z,9.83
2022-11-22T10:12:19.180Z,9.53
2022-11-22T10:15:04.571Z,8.40
2022-11-22T10:17:52.692Z,9.53
2022-11-22T10:20:25.371Z,9.13
2022-11-22T10:22:54.403Z,8.60
2022-11-22T10:25:37.893Z,9.07
2022-11-22T10:28:28.714Z,9.10
2022-11-22T10:31:08.204Z,14.67
2022-11-22T10:33:44.892Z,8.83
2022-11-22T10:36:36.620Z,7.93
2022-11-22T10:39:24.532Z,7.73
2022-11-22T10:42:24.255Z,8.70
2022-11-22T10:45:02.623Z,8.07
2022-11-22T10:47:50.190Z,7.70
2022-11-22T10:50:26.143Z,8.30
2022-11-22T10:53:07.608Z,7.80
2022-11-22T10:55:57.020Z,8.90
2022-11-22T10:58:40.013Z,8.83
2022-11-22T11:01:20.492Z,7.13
2022-11-22T11:03:54.866Z,8.40
2022-11-22T11:06:49.765Z,7.83
2022-11-22T11:10:08.948Z,7.77
2022-11-22T11:12:20.796Z,7.70
2022-11-22T11:14:57.329Z,7.70
2022-11-22T11:17:33.165Z,7.83
2022-11-22T11:20:12.425Z,7.37
2022-11-22T11:25:40.448Z,7.60
2022-11-22T11:28:17.582Z,7.20
2022-11-22T11:30:50.317Z,7.07
2022-11-22T11:33:26.738Z,8.10
2022-11-22T11:35:58.933Z,8.33
2022-11-22T11:38:30.794Z,8.30
2022-11-22T11:41:19.222Z,8.40
2022-11-22T11:43:48.667Z,7.53
2022-11-22T11:46:20.566Z,7.30
2022-11-22T11:48:51.315Z,7.97
2022-11-22T11:51:32.649Z,8.53
2022-11-22T11:54:06.098Z,7.73
2022-11-22T11:56:52.164Z,6.63
2022-11-22T11:59:23.828Z,7.83
2022-11-22T12:01:59.486Z,7.77
2022-11-22T12:04:33.532Z,6.20
2022-11-22T12:07:20.509Z,7.07
2022-11-22T12:09:51.671Z,6.80
2022-11-22T12:12:43.204Z,7.10
2022-11-22T12:15:23.708Z,7.77
2022-11-22T12:18:00.196Z,7.93
2022-11-22T12:20:42.819Z,8.77
2022-11-22T12:23:21.595Z,7.70
2022-11-22T12:25:55.131Z,7.10
2022-11-22T12:28:28.887Z,7.60
2022-11-22T12:34:04.027Z,7.50
2022-11-22T12:36:44.262Z,6.87
2022-11-22T12:39:19.139Z,5.77
2022-11-22T12:41:54.220Z,7.77
2022-11-22T12:44:38.765Z,6.63
2022-11-22T12:47:15.036Z,7.73
2022-11-22T12:48:22.645Z,8.17
2022-11-22T12:49:48.818Z,6.37
2022-11-22T12:52:26.415Z,5.83
2022-11-22T12:55:04.477Z,7.30
2022-11-22T12:57:41.749Z,7.70
2022-11-22T13:00:17.646Z,6.77
2022-11-22T13:03:00.554Z,7.00
2022-11-22T13:05:35.585Z,7.43
2022-11-22T13:08:18.053Z,7.20
2022-11-22T13:10:52.934Z,7.07
2022-11-22T13:13:28.997Z,6.77
2022-11-22T13:16:05.787Z,5.93
2022-11-22T13:18:39.601Z,6.57
2022-11-22T13:21:20.932Z,7.57
2022-11-22T13:24:22.653Z,6.13
2022-11-22T13:27:10.622Z,6.80
2022-11-22T13:29:43.914Z,7.20
2022-11-22T13:32:23.921Z,7.37
2022-11-22T13:35:08.633Z,7.70
2022-11-22T13:37:41.511Z,6.77
2022-11-22T13:40:28.438Z,9.13
2022-11-22T13:43:51.529Z,7.73
2022-11-22T13:46:55.103Z,7.90
2022-11-22T13:49:48.169Z,9.20
2022-11-22T13:52:52.715Z,8.07
2022-11-22T13:55:41.566Z,8.30
2022-11-22T13:58:55.596Z,8.50
2022-11-22T14:02:02.520Z,8.73
2022-11-22T14:04:44.704Z,8.80
2022-11-22T14:07:35.618Z,8.60
2022-11-22T14:10:24.871Z,9.30
2022-11-22T14:13:27.218Z,8.20
2022-11-22T14:16:30.299Z,10.50
2022-11-22T14:19:12.971Z,8.87
2022-11-22T14:22:13.514Z,11.40
2022-11-22T14:25:01.722Z,9.20
2022-11-22T14:27:44.729Z,9.87
2022-11-22T14:30:20.508Z,10.30
2022-11-22T14:33:04.255Z,9.87
2022-11-22T14:35:36.527Z,8.83
2022-11-22T14:38:32.472Z,8.50
2022-11-22T14:41:44.571Z,9.03
2022-11-22T14:44:20.179Z,9.47
2022-11-22T14:46:56.679Z,10.30
2022-11-22T14:49:42.177Z,10.03
2022-11-22T14:52:22.647Z,9.83
2022-11-22T14:54:59.301Z,11.50
2022-11-22T14:57:33.352Z,11.40
2022-11-22T15:00:19.785Z,10.27
2022-11-22T15:03:51.772Z,9.63
2022-11-22T15:09:10.285Z,8.70
2022-11-22T15:10:17.640Z,9.23
2022-11-22T15:13:39.263Z,9.80
2022-11-22T15:57:36.744Z,13.27
2022-11-22T16:00:20.114Z,12.77
2022-11-22T16:02:54.064Z,13.63
2022-11-22T16:06:06.743Z,13.30
2022-11-22T16:08:26.415Z,10.20
2022-11-22T16:10:58.068Z,12.47
2022-11-22T16:13:29.358Z,13.60
2022-11-22T16:16:27.205Z,12.70
2022-11-22T16:19:20.479Z,13.10
2022-11-22T16:21:58.017Z,12.87
2022-11-22T16:24:30.089Z,12.60
2022-11-22T16:27:01.453Z,14.30
2022-11-22T16:29:35.479Z,12.60
2022-11-22T16:32:11.944Z,12.93
2022-11-22T16:34:42.970Z,12.53
2022-11-22T16:37:29.728Z,13.60
2022-11-22T16:40:00.302Z,14.90
2022-11-22T16:42:28.860Z,13.40
2022-11-22T16:45:03.563Z,13.70
2022-11-22T16:47:34.202Z,13.80
2022-11-22T16:50:03.060Z,13.60
2022-11-22T16:52:31.760Z,12.57
2022-11-22T16:55:00.654Z,14.07
2022-11-22T16:57:29.358Z,13.97
2022-11-22T16:59:57.920Z,13.97
2022-11-22T17:02:29.372Z,13.30
2022-11-22T17:04:59.595Z,13.40
2022-11-22T17:07:31.563Z,13.20
2022-11-22T17:10:00.353Z,12.57
2022-11-22T17:12:33.670Z,11.53
2022-11-22T17:15:02.939Z,12.70
2022-11-22T17:17:31.638Z,13.00
2022-11-22T17:20:01.483Z,13.33
2022-11-22T17:22:31.545Z,14.03
2022-11-22T17:25:00.151Z,14.50
2022-11-22T17:27:28.724Z,15.30
2022-11-22T17:29:57.577Z,14.00
2022-11-22T17:32:26.225Z,16.77
2022-11-22T17:34:55.283Z,17.63
2022-11-22T17:37:29.353Z,16.03
2022-11-22T17:39:57.909Z,15.43
2022-11-22T17:42:26.476Z,14.40
2022-11-22T17:44:55.188Z,13.63
2022-11-22T17:47:24.077Z,13.90
2022-11-22T17:49:52.723Z,15.40
2022-11-22T17:52:21.415Z,15.33
2022-11-22T17:54:51.361Z,15.97
2022-11-22T17:57:20.332Z,14.20
2022-11-22T17:59:48.910Z,15.30
2022-11-22T18:02:17.489Z,16.27
2022-11-22T18:04:46.452Z,17.07
2022-11-22T18:07:15.198Z,16.83
2022-11-22T18:09:43.862Z,18.87
2022-11-22T18:12:13.812Z,18.57
2022-11-22T18:14:44.002Z,17.90
2022-11-22T18:17:12.542Z,19.53
2022-11-22T18:19:41.467Z,17.90
2022-11-22T18:22:10.139Z,16.97
2022-11-22T18:24:38.709Z,17.77
2022-11-22T18:27:07.307Z,20.17
2022-11-22T18:29:44.600Z,18.23
2022-11-22T18:32:14.092Z,17.77
2022-11-22T18:34:42.870Z,18.20
2022-11-22T18:37:11.732Z,19.90
2022-11-22T18:39:40.641Z,19.60
2022-11-22T18:42:14.160Z,18.90
2022-11-22T18:45:11.364Z,19.27
2022-11-22T18:47:40.065Z,16.23
2022-11-22T18:52:46.866Z,18.63
2022-11-22T18:55:49.670Z,18.23
2022-11-22T18:58:18.384Z,18.93
2022-11-22T19:00:49.647Z,17.20
2022-11-22T19:03:18.287Z,20.63
2022-11-22T19:05:46.877Z,20.50
2022-11-22T19:08:16.002Z,17.63
2022-11-22T19:10:45.643Z,19.47
2022-11-22T19:13:17.031Z,19.70
2022-11-22T19:15:49.055Z,18.53
2022-11-22T19:18:20.122Z,17.97
2022-11-22T19:20:55.208Z,18.57
2022-11-22T19:23:24.299Z,20.70
2022-11-22T19:25:53.776Z,20.57
2022-11-22T19:28:27.387Z,19.00
2022-11-22T19:31:02.912Z,18.47
2022-11-22T19:33:33.714Z,17.50
2022-11-22T19:36:08.818Z,19.37
2022-11-22T19:38:37.480Z,19.70
2022-11-22T19:41:09.724Z,18.43
2022-11-22T19:43:38.877Z,18.10
2022-11-22T19:46:09.511Z,18.80
2022-11-22T19:48:42.371Z,18.87
2022-11-22T19:51:16.465Z,20.30
2022-11-22T19:53:46.002Z,20.00
2022-11-22T19:56:17.374Z,17.67
2022-11-22T19:58:52.175Z,17.37
2022-11-22T20:01:25.103Z,18.57
2022-11-22T20:04:00.361Z,19.03
2022-11-22T20:06:29.830Z,18.80
2022-11-22T20:09:03.425Z,18.80
2022-11-22T20:11:32.340Z,18.40
2022-11-22T20:14:01.021Z,19.00
2022-11-22T20:16:32.959Z,19.90
2022-11-22T20:19:22.926Z,19.57
2022-11-22T20:21:51.724Z,20.80
2022-11-22T20:24:21.058Z,19.97
2022-11-22T20:26:49.845Z,17.73
2022-11-22T20:29:21.423Z,19.80
2022-11-22T20:31:51.535Z,17.70
2022-11-22T20:34:22.163Z,18.63
2022-11-22T20:36:56.793Z,19.60
2022-11-22T20:39:51.734Z,19.07
2022-11-22T20:42:34.222Z,19.50
2022-11-22T20:45:37.207Z,20.20
2022-11-22T20:48:07.714Z,17.30
2022-11-22T20:50:39.536Z,16.40
2022-11-22T20:53:08.266Z,17.93
2022-11-22T20:55:36.831Z,16.97
2022-11-22T20:58:05.519Z,18.03
2022-11-22T21:00:34.238Z,19.00
2022-11-22T21:03:02.844Z,19.53
2022-11-22T21:05:36.424Z,17.27
2022-11-22T21:08:07.923Z,19.80
2022-11-22T21:10:36.491Z,23.17
2022-11-22T21:13:05.229Z,21.03
2022-11-22T21:15:34.939Z,18.33
2022-11-22T21:18:24.068Z,20.53
2022-11-22T21:20:54.619Z,16.40
2022-11-22T21:23:23.162Z,18.03
2022-11-22T21:25:53.296Z,17.60
2022-11-22T21:28:21.874Z,18.50
2022-11-22T21:30:55.073Z,16.97
2022-11-22T21:33:23.905Z,18.27
2022-11-22T21:35:54.639Z,16.73
2022-11-22T21:38:28.240Z,21.37
2022-11-22T21:41:24.367Z,17.77
2022-11-22T21:43:50.963Z,17.50
2022-11-22T21:46:20.388Z,17.07
2022-11-22T21:48:50.398Z,19.70
2022-11-22T21:51:21.702Z,19.47
2022-11-22T21:53:50.226Z,18.80
2022-11-22T21:56:18.773Z,17.93
2022-11-22T21:58:47.320Z,16.67
2022-11-22T22:01:15.916Z,18.20
2022-11-22T22:03:44.557Z,16.93
2022-11-22T22:06:13.119Z,17.63
2022-11-22T22:08:43.199Z,17.60
2022-11-22T22:11:14.990Z,19.47
2022-11-22T22:13:43.872Z,17.60
2022-11-22T22:16:18.757Z,17.50
2022-11-22T22:18:55.702Z,18.30
2022-11-22T22:21:26.414Z,19.20
2022-11-22T22:24:00.999Z,18.10
2022-11-22T22:26:33.928Z,19.00
2022-11-22T22:29:04.443Z,17.33
2022-11-22T22:31:44.350Z,19.37
2022-11-22T22:34:20.924Z,19.07
2022-11-22T22:36:49.753Z,20.27
2022-11-22T22:39:19.777Z,19.60
2022-11-22T22:41:48.331Z,19.70
2022-11-22T22:44:16.820Z,19.70
2022-11-22T22:46:45.458Z,19.57
2022-11-22T22:49:14.036Z,19.43
2022-11-22T22:51:42.544Z,19.73
2022-11-22T22:54:11.538Z,20.07
2022-11-22T22:56:43.497Z,18.07
2022-11-22T22:59:12.167Z,19.57
2022-11-22T23:01:40.716Z,17.47
2022-11-22T23:04:10.018Z,18.33
2022-11-22T23:06:41.014Z,18.50
2022-11-22T23:09:12.204Z,17.97
2022-11-22T23:11:59.664Z,18.27
2022-11-22T23:14:30.294Z,17.07
2022-11-22T23:16:59.064Z,17.40
2022-11-22T23:19:29.018Z,17.40
2022-11-22T23:21:57.732Z,18.73
2022-11-22T23:24:26.233Z,19.37
2022-11-22T23:26:56.279Z,19.37
2022-11-22T23:29:24.797Z,19.47
2022-11-22T23:31:53.425Z,18.67
2022-11-22T23:34:22.188Z,17.90
2022-11-22T23:36:50.836Z,18.90
2022-11-22T23:39:19.260Z,18.20
2022-11-22T23:41:47.904Z,18.40
2022-11-22T23:44:17.800Z,17.00
2022-11-22T23:46:46.310Z,18.10
2022-11-22T23:49:14.783Z,18.40
2022-11-22T23:51:43.310Z,17.00
2022-11-22T23:54:12.086Z,19.70
2022-11-22T23:56:40.617Z,19.23
2022-11-22T23:59:10.689Z,19.67
